createdAt,value
2019-03-25T00:01:11.331Z,4.20
2019-03-25T00:03:40.311Z,4.20
2019-03-25T00:06:08.952Z,4.30
2019-03-25T00:08:37.615Z,4.30
2019-03-25T00:11:06.334Z,4.20
2019-03-25T00:13:34.913Z,4.20
2019-03-25T00:16:03.882Z,4.20
2019-03-25T00:18:32.862Z,4.20
2019-03-25T00:21:01.434Z,4.10
2019-03-25T00:23:29.999Z,4.10
2019-03-25T00:25:58.663Z,4.10
2019-03-25T00:28:27.234Z,4.10
2019-03-25T00:30:55.853Z,4.10
2019-03-25T00:33:24.414Z,4.10
2019-03-25T00:35:53.141Z,4.10
2019-03-25T00:38:21.707Z,4.00
2019-03-25T00:40:50.597Z,4.00
2019-03-25T00:43:19.195Z,4.10
2019-03-25T00:45:48.103Z,4.10
2019-03-25T00:48:16.671Z,4.10
2019-03-25T00:50:45.259Z,4.10
2019-03-25T00:53:13.892Z,4.10
2019-03-25T00:55:42.502Z,4.10
2019-03-25T00:58:11.139Z,4.10
2019-03-25T01:00:39.901Z,4.10
2019-03-25T01:03:08.530Z,4.10
2019-03-25T01:05:37.109Z,4.20
2019-03-25T01:08:06.154Z,4.20
2019-03-25T01:10:34.915Z,4.20
2019-03-25T01:13:03.842Z,4.30
2019-03-25T01:15:32.865Z,4.20
2019-03-25T01:18:01.427Z,4.20
2019-03-25T01:20:30.150Z,4.20
2019-03-25T01:22:58.809Z,4.20
2019-03-25T01:25:27.887Z,4.20
2019-03-25T01:27:56.873Z,4.20
2019-03-25T01:30:25.470Z,4.20
2019-03-25T01:32:54.321Z,4.20
2019-03-25T01:35:23.288Z,4.20
2019-03-25T01:37:51.904Z,4.20
2019-03-25T01:40:20.841Z,4.20
2019-03-25T01:42:49.397Z,4.20
2019-03-25T01:45:17.997Z,4.10
2019-03-25T01:47:46.902Z,4.10
2019-03-25T01:50:15.518Z,4.10
2019-03-25T01:52:44.073Z,4.10
2019-03-25T01:55:13.602Z,4.00
2019-03-25T01:57:42.539Z,4.10
2019-03-25T02:00:11.779Z,4.10
2019-03-25T02:02:40.343Z,4.10
2019-03-25T02:05:09.021Z,4.10
2019-03-25T02:07:37.591Z,4.00
2019-03-25T02:10:07.930Z,4.10
2019-03-25T02:12:36.818Z,4.00
2019-03-25T02:15:06.559Z,4.10
2019-03-25T02:17:35.218Z,4.00
2019-03-25T02:20:05.431Z,4.00
2019-03-25T02:22:34.404Z,4.00
2019-03-25T02:25:03.576Z,4.00
2019-03-25T02:27:32.157Z,4.10
2019-03-25T02:30:00.725Z,3.90
2019-03-25T02:32:29.309Z,3.90
2019-03-25T02:34:57.889Z,3.90
2019-03-25T02:37:26.786Z,3.90
2019-03-25T02:39:55.346Z,3.90
2019-03-25T02:42:23.970Z,3.90
2019-03-25T02:44:52.545Z,3.90
2019-03-25T02:47:21.110Z,3.90
2019-03-25T02:49:49.685Z,3.90
2019-03-25T02:52:18.279Z,3.90
2019-03-25T02:54:47.168Z,3.90
2019-03-25T02:57:16.107Z,3.90
2019-03-25T02:59:45.091Z,3.90
2019-03-25T03:02:13.657Z,3.90
2019-03-25T03:04:42.215Z,3.90
2019-03-25T03:07:10.867Z,3.90
2019-03-25T03:09:39.799Z,3.80
2019-03-25T03:12:08.388Z,3.80
2019-03-25T03:14:36.971Z,3.80
2019-03-25T03:17:05.560Z,3.80
2019-03-25T03:19:34.130Z,3.80
2019-03-25T03:22:02.722Z,3.70
2019-03-25T03:24:31.280Z,3.70
2019-03-25T03:27:00.138Z,3.70
2019-03-25T03:29:28.804Z,3.70
2019-03-25T03:31:57.499Z,3.70
2019-03-25T03:34:26.093Z,3.70
2019-03-25T03:36:54.656Z,3.60
2019-03-25T03:39:23.231Z,3.60
2019-03-25T03:41:51.847Z,3.60
2019-03-25T03:44:20.413Z,3.50
2019-03-25T03:46:49.030Z,3.50
2019-03-25T03:49:17.576Z,3.50
2019-03-25T03:51:46.318Z,3.50
2019-03-25T03:54:15.520Z,3.50
2019-03-25T03:56:44.724Z,3.50
2019-03-25T03:59:13.840Z,3.50
2019-03-25T04:01:42.505Z,3.50
2019-03-25T04:04:11.070Z,3.60
2019-03-25T04:06:39.638Z,3.70
2019-03-25T04:09:08.289Z,3.70
2019-03-25T04:11:37.190Z,3.70
2019-03-25T04:14:06.292Z,3.70
2019-03-25T04:16:35.152Z,3.70
2019-03-25T04:19:03.752Z,3.80
2019-03-25T04:21:32.328Z,3.80
2019-03-25T04:24:00.906Z,3.80
2019-03-25T04:26:29.747Z,3.90
2019-03-25T04:28:58.523Z,3.90
2019-03-25T04:31:27.472Z,3.90
2019-03-25T04:33:56.067Z,3.90
2019-03-25T04:36:24.660Z,3.90
2019-03-25T04:38:53.241Z,3.90
2019-03-25T04:41:21.810Z,3.90
2019-03-25T04:43:50.694Z,3.90
2019-03-25T04:46:19.258Z,3.90
2019-03-25T04:48:47.849Z,4.00
2019-03-25T04:51:16.755Z,4.00
2019-03-25T04:53:45.646Z,4.00
2019-03-25T04:56:14.268Z,4.00
2019-03-25T04:58:42.858Z,4.00
2019-03-25T05:01:11.825Z,4.10
2019-03-25T05:03:40.702Z,4.10
2019-03-25T05:06:09.417Z,4.10
2019-03-25T05:08:38.078Z,4.00
2019-03-25T05:11:06.720Z,4.10
2019-03-25T05:13:35.318Z,4.10
2019-03-25T05:16:03.875Z,4.10
2019-03-25T05:18:32.852Z,4.10
2019-03-25T05:21:01.435Z,4.10
2019-03-25T05:23:30.025Z,4.10
2019-03-25T05:25:58.602Z,4.20
2019-03-25T05:28:27.198Z,4.30
2019-03-25T05:30:55.759Z,4.20
2019-03-25T05:33:24.351Z,4.30
2019-03-25T05:35:53.258Z,4.20
2019-03-25T05:38:21.854Z,4.20
2019-03-25T05:40:50.423Z,4.10
2019-03-25T05:43:21.139Z,4.10
2019-03-25T05:45:49.599Z,4.00
2019-03-25T05:48:18.192Z,3.90
2019-03-25T05:50:46.761Z,3.70
2019-03-25T05:53:15.324Z,3.60
2019-03-25T05:55:44.813Z,3.50
2019-03-25T05:58:13.761Z,3.50
2019-03-25T06:00:42.425Z,3.50
2019-03-25T06:03:10.990Z,3.50
2019-03-25T06:05:39.571Z,3.50
2019-03-25T06:08:08.142Z,3.40
2019-03-25T06:10:36.725Z,3.40
2019-03-25T06:13:05.664Z,3.40
2019-03-25T06:15:34.573Z,3.30
2019-03-25T06:18:03.179Z,3.30
2019-03-25T06:20:32.070Z,3.30
2019-03-25T06:23:00.644Z,3.30
2019-03-25T06:25:29.218Z,3.20
2019-03-25T06:27:57.795Z,3.10
2019-03-25T06:30:26.560Z,2.80
2019-03-25T06:32:55.131Z,2.60
2019-03-25T06:35:23.811Z,2.60
2019-03-25T06:37:52.375Z,2.50
2019-03-25T06:40:21.029Z,2.50
2019-03-25T06:42:49.665Z,2.50
2019-03-25T06:45:18.249Z,2.40
2019-03-25T06:47:46.815Z,2.40
2019-03-25T06:50:15.974Z,2.30
2019-03-25T06:52:44.485Z,2.30
2019-03-25T06:55:13.071Z,2.40
2019-03-25T06:57:41.898Z,2.40
2019-03-25T07:00:11.872Z,2.40
2019-03-25T07:02:40.558Z,2.40
2019-03-25T07:05:09.936Z,2.50
2019-03-25T07:07:38.493Z,2.60
2019-03-25T07:10:07.827Z,2.60
2019-03-25T07:12:37.835Z,2.70
2019-03-25T07:15:08.647Z,2.80
2019-03-25T07:17:37.214Z,2.80
2019-03-25T07:20:09.957Z,2.90
2019-03-25T07:22:38.862Z,2.90
2019-03-25T07:25:07.519Z,3.00
2019-03-25T07:27:37.282Z,3.00
2019-03-25T07:30:08.143Z,3.10
2019-03-25T07:32:36.723Z,3.20
2019-03-25T07:35:07.150Z,3.20
2019-03-25T07:37:35.739Z,3.20
2019-03-25T07:40:08.423Z,3.30
2019-03-25T07:42:37.321Z,3.40
2019-03-25T07:45:09.421Z,3.40
2019-03-25T07:47:48.273Z,3.40
2019-03-25T07:50:16.901Z,3.50
2019-03-25T07:52:45.457Z,3.50
2019-03-25T07:55:14.067Z,3.60
2019-03-25T07:57:48.233Z,3.60
2019-03-25T08:00:15.107Z,3.70
2019-03-25T08:02:43.751Z,3.70
2019-03-25T08:05:12.470Z,3.80
2019-03-25T08:07:41.058Z,3.80
2019-03-25T08:10:10.144Z,3.80
2019-03-25T08:12:38.732Z,3.90
2019-03-25T08:15:07.857Z,4.00
2019-03-25T08:17:36.415Z,4.00
2019-03-25T08:20:09.945Z,4.00
2019-03-25T08:22:38.715Z,4.00
2019-03-25T08:25:08.282Z,4.10
2019-03-25T08:27:37.016Z,4.10
2019-03-25T08:30:07.768Z,4.10
2019-03-25T08:32:36.365Z,4.10
2019-03-25T08:35:06.762Z,4.10
2019-03-25T08:37:35.350Z,4.20
2019-03-25T08:40:06.223Z,4.30
2019-03-25T08:42:34.820Z,4.30
2019-03-25T08:45:03.511Z,4.40
2019-03-25T08:47:32.126Z,4.50
2019-03-25T08:50:00.674Z,4.60
2019-03-25T08:52:29.397Z,4.50
2019-03-25T08:54:57.869Z,4.60
2019-03-25T08:57:26.469Z,4.60
2019-03-25T08:59:57.468Z,4.60
2019-03-25T09:02:25.328Z,4.80
2019-03-25T09:04:53.905Z,4.90
2019-03-25T09:07:22.523Z,4.90
2019-03-25T09:09:51.064Z,5.10
2019-03-25T09:12:19.686Z,5.10
2019-03-25T09:14:48.283Z,5.20
2019-03-25T09:17:16.924Z,5.50
2019-03-25T09:19:45.476Z,5.80
2019-03-25T09:22:14.140Z,5.90
2019-03-25T09:24:42.697Z,6.10
2019-03-25T09:27:11.280Z,6.10
2019-03-25T09:29:39.850Z,6.20
2019-03-25T09:32:08.491Z,6.30
2019-03-25T09:34:37.121Z,6.40
2019-03-25T09:37:05.708Z,6.40
2019-03-25T09:39:34.271Z,6.50
2019-03-25T09:42:02.869Z,6.40
2019-03-25T09:44:31.414Z,6.30
2019-03-25T09:47:00.084Z,6.30
2019-03-25T09:49:28.646Z,6.40
2019-03-25T09:51:57.421Z,6.60
2019-03-25T09:54:26.047Z,6.70
2019-03-25T09:56:54.652Z,6.80
2019-03-25T09:59:23.217Z,6.80
2019-03-25T10:01:51.801Z,6.70
2019-03-25T10:04:20.355Z,6.80
2019-03-25T10:06:48.986Z,6.70
2019-03-25T10:09:17.705Z,6.60
2019-03-25T10:11:46.324Z,6.50
2019-03-25T10:14:14.926Z,5.60
2019-03-25T10:16:43.488Z,6.60
2019-03-25T10:19:12.176Z,6.70
2019-03-25T10:21:40.801Z,6.70
2019-03-25T10:24:09.435Z,6.70
2019-03-25T10:26:38.011Z,6.60
2019-03-25T10:29:06.638Z,6.60
2019-03-25T10:31:35.554Z,6.70
2019-03-25T10:34:04.138Z,6.80
2019-03-25T10:36:32.700Z,6.90
2019-03-25T10:39:01.273Z,7.00
2019-03-25T10:41:29.836Z,7.20
2019-03-25T10:43:58.434Z,7.60
2019-03-25T10:46:26.996Z,8.00
2019-03-25T10:48:55.589Z,8.00
2019-03-25T10:51:24.199Z,8.20
2019-03-25T10:53:52.773Z,8.20
2019-03-25T10:56:21.388Z,7.80
2019-03-25T10:58:57.857Z,7.50
2019-03-25T11:01:20.269Z,7.60
2019-03-25T11:03:48.866Z,8.10
2019-03-25T11:06:17.634Z,8.10
2019-03-25T11:08:46.304Z,7.80
2019-03-25T11:11:14.869Z,7.40
2019-03-25T11:13:43.458Z,7.10
2019-03-25T11:16:12.025Z,6.90
2019-03-25T11:18:40.793Z,7.50
2019-03-25T11:21:09.381Z,8.30
2019-03-25T11:23:38.009Z,8.90
2019-03-25T11:26:06.707Z,9.20
2019-03-25T11:28:35.308Z,9.60
2019-03-25T11:31:03.910Z,10.30
2019-03-25T11:33:32.512Z,10.80
2019-03-25T11:36:02.770Z,11.10
2019-03-25T11:38:31.630Z,11.50
2019-03-25T11:41:00.200Z,11.80
2019-03-25T11:43:28.782Z,11.20
2019-03-25T11:45:57.800Z,10.60
2019-03-25T11:48:26.424Z,10.10
2019-03-25T11:50:55.422Z,10.20
2019-03-25T11:53:24.035Z,10.00
2019-03-25T11:55:52.607Z,9.70
2019-03-25T11:58:21.233Z,9.80
2019-03-25T12:00:49.847Z,9.60
2019-03-25T12:03:18.975Z,9.20
2019-03-25T12:05:47.611Z,9.10
2019-03-25T12:08:16.262Z,8.80
2019-03-25T12:10:44.849Z,8.90
2019-03-25T12:13:13.416Z,9.40
2019-03-25T12:15:42.015Z,10.20
2019-03-25T12:18:10.591Z,10.90
2019-03-25T12:20:39.183Z,11.30
2019-03-25T12:23:08.042Z,11.50
2019-03-25T12:25:36.621Z,12.20
2019-03-25T12:28:05.913Z,11.90
2019-03-25T12:30:34.489Z,12.30
2019-03-25T12:33:04.258Z,12.10
2019-03-25T12:35:33.122Z,12.60
2019-03-25T12:38:02.121Z,12.60
2019-03-25T12:40:30.729Z,13.00
2019-03-25T12:42:59.347Z,12.90
2019-03-25T12:45:28.522Z,12.10
2019-03-25T12:47:57.238Z,11.30
2019-03-25T12:50:25.890Z,10.70
2019-03-25T12:52:54.815Z,10.30
2019-03-25T12:55:23.498Z,10.40
2019-03-25T12:57:52.058Z,10.90
2019-03-25T13:00:41.375Z,11.50
2019-03-25T13:03:09.919Z,11.80
2019-03-25T13:05:38.961Z,11.80
2019-03-25T13:08:07.539Z,11.70
2019-03-25T13:10:36.188Z,11.70
2019-03-25T13:13:04.918Z,12.00
2019-03-25T13:15:33.522Z,12.30
2019-03-25T13:18:02.103Z,12.30
2019-03-25T13:20:30.679Z,12.40
2019-03-25T13:22:59.566Z,12.30
2019-03-25T13:25:28.211Z,12.20
2019-03-25T13:27:56.778Z,11.90
2019-03-25T13:30:25.373Z,11.40
2019-03-25T13:32:54.105Z,10.60
2019-03-25T13:35:22.712Z,9.90
2019-03-25T13:37:51.265Z,9.50
2019-03-25T13:40:19.922Z,9.10
2019-03-25T13:42:48.932Z,8.90
2019-03-25T13:45:17.513Z,8.70
2019-03-25T13:47:46.099Z,8.50
2019-03-25T13:50:15.028Z,8.40
2019-03-25T13:52:43.585Z,8.20
2019-03-25T13:55:12.177Z,8.00
2019-03-25T13:57:40.752Z,8.00
2019-03-25T14:00:10.541Z,7.70
2019-03-25T14:02:39.106Z,7.60
2019-03-25T14:05:07.877Z,7.60
2019-03-25T14:07:36.860Z,7.60
2019-03-25T14:10:07.356Z,7.70
2019-03-25T14:12:35.941Z,7.90
2019-03-25T14:15:08.718Z,8.10
2019-03-25T14:17:37.295Z,8.30
2019-03-25T14:20:08.131Z,8.90
2019-03-25T14:22:36.714Z,9.40
2019-03-25T14:25:06.239Z,10.00
2019-03-25T14:27:34.806Z,10.10
2019-03-25T14:30:13.979Z,10.30
2019-03-25T14:32:35.079Z,10.70
2019-03-25T14:35:04.697Z,11.10
2019-03-25T14:37:33.306Z,10.90
2019-03-25T14:40:01.901Z,10.40
2019-03-25T14:42:30.516Z,10.40
2019-03-25T14:44:59.067Z,10.10
2019-03-25T14:47:28.480Z,10.40
2019-03-25T14:49:57.066Z,10.40
2019-03-25T14:52:25.667Z,10.80
2019-03-25T14:54:54.298Z,11.00
2019-03-25T14:57:22.914Z,11.50
2019-03-25T14:59:51.733Z,11.70
2019-03-25T15:02:20.330Z,11.60
2019-03-25T15:04:48.901Z,11.80
2019-03-25T15:07:17.494Z,11.80
2019-03-25T15:09:46.107Z,11.80
2019-03-25T15:12:14.721Z,11.80
2019-03-25T15:14:43.322Z,11.70
2019-03-25T15:17:12.267Z,11.30
2019-03-25T15:19:40.870Z,10.90
2019-03-25T15:22:09.507Z,10.80
2019-03-25T15:24:38.130Z,10.90
2019-03-25T15:27:07.240Z,11.30
2019-03-25T15:29:35.823Z,11.60
2019-03-25T15:32:04.422Z,11.30
2019-03-25T15:34:33.079Z,11.40
2019-03-25T15:37:01.723Z,11.40
2019-03-25T15:39:30.316Z,11.70
2019-03-25T15:41:58.983Z,11.50
2019-03-25T15:44:27.880Z,11.50
2019-03-25T15:46:56.777Z,11.20
2019-03-25T15:49:25.359Z,11.30
2019-03-25T15:51:53.949Z,11.70
2019-03-25T15:54:22.505Z,11.90
2019-03-25T15:56:51.099Z,11.70
2019-03-25T15:59:19.666Z,11.40
2019-03-25T16:01:48.299Z,11.20
2019-03-25T16:04:16.851Z,11.20
2019-03-25T16:06:45.595Z,11.20
2019-03-25T16:09:14.158Z,11.10
2019-03-25T16:11:43.176Z,11.20
2019-03-25T16:14:11.769Z,11.10
2019-03-25T16:16:40.742Z,11.10
2019-03-25T16:19:09.313Z,10.90
2019-03-25T16:21:38.002Z,10.90
2019-03-25T16:24:06.544Z,10.70
2019-03-25T16:26:35.135Z,10.60
2019-03-25T16:29:03.781Z,10.50
2019-03-25T16:31:32.392Z,10.40
2019-03-25T16:34:00.980Z,10.50
2019-03-25T16:36:29.555Z,10.50
2019-03-25T16:38:58.123Z,10.40
2019-03-25T16:41:26.717Z,10.20
2019-03-25T16:43:55.425Z,10.30
2019-03-25T16:46:24.012Z,9.40
2019-03-25T16:48:54.987Z,10.30
2019-03-25T16:51:22.871Z,10.20
2019-03-25T16:53:51.456Z,9.90
2019-03-25T16:56:20.019Z,9.80
2019-03-25T16:58:48.610Z,9.60
2019-03-25T17:01:17.183Z,9.50
2019-03-25T17:03:45.781Z,9.50
2019-03-25T17:06:14.375Z,9.40
2019-03-25T17:08:42.954Z,9.20
2019-03-25T17:11:11.620Z,9.00
2019-03-25T17:13:40.376Z,8.90
2019-03-25T17:16:08.921Z,8.90
2019-03-25T17:18:37.511Z,8.70
2019-03-25T17:21:06.488Z,8.70
2019-03-25T17:23:35.081Z,8.60
2019-03-25T17:26:03.915Z,8.50
2019-03-25T17:28:33.009Z,8.40
2019-03-25T17:31:03.096Z,8.40
2019-03-25T17:33:31.902Z,8.30
2019-03-25T17:36:00.463Z,8.30
2019-03-25T17:38:29.070Z,8.10
2019-03-25T17:40:57.856Z,7.90
2019-03-25T17:43:26.439Z,7.90
2019-03-25T17:45:55.008Z,8.00
2019-03-25T17:48:23.614Z,8.00
2019-03-25T17:50:53.042Z,8.00
2019-03-25T17:53:22.016Z,8.00
2019-03-25T17:55:50.501Z,8.00
2019-03-25T17:58:19.117Z,8.00
2019-03-25T18:00:50.753Z,8.00
2019-03-25T18:03:21.031Z,8.00
2019-03-25T18:05:49.588Z,8.00
2019-03-25T18:08:18.186Z,8.00
2019-03-25T18:10:46.807Z,8.00
2019-03-25T18:13:22.234Z,8.00
2019-03-25T18:15:45.687Z,8.10
2019-03-25T18:18:14.271Z,8.10
2019-03-25T18:20:47.436Z,8.10
2019-03-25T18:23:16.128Z,8.20
2019-03-25T18:25:44.677Z,8.20
2019-03-25T18:28:13.254Z,8.10
2019-03-25T18:30:41.831Z,8.10
2019-03-25T18:33:10.560Z,8.00
2019-03-25T18:35:39.147Z,7.90
2019-03-25T18:38:07.713Z,7.90
2019-03-25T18:40:36.388Z,7.90
2019-03-25T18:43:05.286Z,7.90
2019-03-25T18:45:34.128Z,7.90
2019-03-25T18:48:02.707Z,7.90
2019-03-25T18:50:31.657Z,7.90
2019-03-25T18:53:00.668Z,7.90
2019-03-25T18:55:29.191Z,7.80
2019-03-25T18:57:57.753Z,7.70
2019-03-25T19:00:34.190Z,7.80
2019-03-25T19:03:03.002Z,7.60
2019-03-25T19:05:31.638Z,7.60
2019-03-25T19:08:02.857Z,7.80
2019-03-25T19:10:32.027Z,7.80
2019-03-25T19:13:00.556Z,7.80
2019-03-25T19:15:29.165Z,7.70
2019-03-25T19:17:58.335Z,7.60
2019-03-25T19:20:26.950Z,7.60
2019-03-25T19:22:55.543Z,7.50
2019-03-25T19:25:24.186Z,7.50
2019-03-25T19:27:52.665Z,7.50
2019-03-25T19:30:21.278Z,7.40
2019-03-25T19:32:49.863Z,7.30
2019-03-25T19:35:18.459Z,7.20
2019-03-25T19:37:47.038Z,7.20
2019-03-25T19:40:15.618Z,7.20
2019-03-25T19:42:44.218Z,7.10
2019-03-25T19:45:13.268Z,7.00
2019-03-25T19:47:42.018Z,7.10
2019-03-25T19:50:11.460Z,7.00
2019-03-25T19:52:39.974Z,7.00
2019-03-25T19:55:08.580Z,7.00
2019-03-25T19:57:37.149Z,6.90
2019-03-25T20:00:10.343Z,6.90
2019-03-25T20:02:38.928Z,6.80
2019-03-25T20:05:08.586Z,6.80
2019-03-25T20:07:37.522Z,6.70
2019-03-25T20:10:07.757Z,6.60
2019-03-25T20:12:36.359Z,6.50
2019-03-25T20:15:07.237Z,6.50
2019-03-25T20:17:35.777Z,6.40
2019-03-25T20:20:06.730Z,6.40
2019-03-25T20:22:35.318Z,6.30
2019-03-25T20:25:06.166Z,6.20
2019-03-25T20:27:34.732Z,6.10
2019-03-25T20:30:04.963Z,6.10
2019-03-25T20:32:33.516Z,6.10
2019-03-25T20:35:02.162Z,6.10
2019-03-25T20:37:30.773Z,6.00
2019-03-25T20:39:59.451Z,5.90
2019-03-25T20:42:28.029Z,5.90
2019-03-25T20:44:56.623Z,5.80
2019-03-25T20:47:25.224Z,5.80
2019-03-25T20:49:53.780Z,5.80
2019-03-25T20:52:24.433Z,5.80
2019-03-25T20:54:52.583Z,5.70
2019-03-25T20:57:21.450Z,5.70
2019-03-25T20:59:50.139Z,5.70
2019-03-25T21:02:18.679Z,5.70
2019-03-25T21:04:47.277Z,5.70
2019-03-25T21:07:15.870Z,5.70
2019-03-25T21:09:44.456Z,5.70
2019-03-25T21:12:13.073Z,5.70
2019-03-25T21:14:41.640Z,5.60
2019-03-25T21:17:10.197Z,5.50
2019-03-25T21:19:38.792Z,5.40
2019-03-25T21:22:07.373Z,5.30
2019-03-25T21:24:35.954Z,5.30
2019-03-25T21:27:04.620Z,5.20
2019-03-25T21:29:33.495Z,5.20
2019-03-25T21:32:02.089Z,5.10
2019-03-25T21:34:30.818Z,5.20
2019-03-25T21:36:59.402Z,5.10
2019-03-25T21:39:27.989Z,5.20
2019-03-25T21:41:56.666Z,5.20
2019-03-25T21:44:25.396Z,5.20
2019-03-25T21:46:54.250Z,5.10
2019-03-25T21:49:22.827Z,5.10
2019-03-25T21:51:51.707Z,5.00
2019-03-25T21:54:20.367Z,5.00
2019-03-25T21:56:48.997Z,5.00
2019-03-25T21:59:17.943Z,4.90
2019-03-25T22:01:46.558Z,4.90
2019-03-25T22:04:15.127Z,4.90
2019-03-25T22:06:43.732Z,4.90
2019-03-25T22:09:12.335Z,4.90
2019-03-25T22:11:40.929Z,4.80
2019-03-25T22:14:09.504Z,4.80
2019-03-25T22:16:38.100Z,4.80
2019-03-25T22:19:06.681Z,4.70
2019-03-25T22:21:35.608Z,4.70
2019-03-25T22:24:04.178Z,4.80
2019-03-25T22:26:32.765Z,4.70
2019-03-25T22:29:01.733Z,4.70
2019-03-25T22:31:30.323Z,4.60
2019-03-25T22:33:59.037Z,4.50
2019-03-25T22:36:27.627Z,4.40
2019-03-25T22:38:56.190Z,4.50
2019-03-25T22:41:24.789Z,4.40
2019-03-25T22:43:53.371Z,4.40
2019-03-25T22:46:21.982Z,4.30
2019-03-25T22:48:50.594Z,4.40
2019-03-25T22:51:19.171Z,4.30
2019-03-25T22:53:47.748Z,4.20
2019-03-25T22:56:16.410Z,4.20
2019-03-25T22:58:45.049Z,4.20
2019-03-25T23:01:13.685Z,4.20
2019-03-25T23:03:42.237Z,4.10
2019-03-25T23:06:10.960Z,4.00
2019-03-25T23:08:39.546Z,4.00
2019-03-25T23:11:08.155Z,4.00
2019-03-25T23:13:36.726Z,4.00
2019-03-25T23:16:05.679Z,4.00
2019-03-25T23:18:34.643Z,4.00
2019-03-25T23:21:03.234Z,4.00
2019-03-25T23:23:32.084Z,4.00
2019-03-25T23:26:00.699Z,4.10
2019-03-25T23:28:29.253Z,4.10
2019-03-25T23:30:57.819Z,4.10
2019-03-25T23:33:26.420Z,4.10
2019-03-25T23:35:55.054Z,4.20
2019-03-25T23:38:30.263Z,4.20
2019-03-25T23:41:14.233Z,4.20
2019-03-25T23:43:50.677Z,4.30
2019-03-25T23:46:30.014Z,4.20
2019-03-25T23:49:02.595Z,4.20
2019-03-25T23:51:46.256Z,4.10
2019-03-25T23:54:14.925Z,4.10
2019-03-25T23:56:43.628Z,4.10
2019-03-25T23:59:12.200Z,4.00
